createdAt,value
2019-02-27T00:03:17.736Z,-1.87
2019-02-27T00:05:51.422Z,-1.21
2019-02-27T00:08:44.526Z,-1.37
2019-02-27T00:11:18.605Z,-0.17
2019-02-27T00:13:53.357Z,0.19
2019-02-27T00:16:28.388Z,-0.33
2019-02-27T00:19:02.716Z,-0.31
2019-02-27T00:21:36.953Z,-0.60
2019-02-27T00:24:10.995Z,-0.85
2019-02-27T00:26:45.538Z,-0.48
2019-02-27T00:29:20.213Z,-0.62
2019-02-27T00:31:56.087Z,-0.69
2019-02-27T00:34:32.820Z,-0.88
2019-02-27T00:37:05.527Z,-0.90
2019-02-27T00:39:42.835Z,-0.93
2019-02-27T00:42:19.593Z,-0.89
2019-02-27T00:44:51.718Z,-0.93
2019-02-27T00:47:25.833Z,-0.83
2019-02-27T00:50:05.759Z,-0.88
2019-02-27T00:52:36.809Z,-0.89
2019-02-27T00:55:14.158Z,-0.84
2019-02-27T00:57:47.686Z,-0.85
2019-02-27T01:00:22.582Z,-0.73
2019-02-27T01:02:59.427Z,-0.73
2019-02-27T01:05:33.782Z,-0.77
2019-02-27T01:08:08.716Z,-0.65
2019-02-27T01:10:45.263Z,-0.85
2019-02-27T01:13:18.273Z,-0.75
2019-02-27T01:15:52.849Z,-0.55
2019-02-27T01:18:30.354Z,-0.84
2019-02-27T01:21:02.048Z,-0.66
2019-02-27T01:23:37.457Z,-0.47
2019-02-27T01:26:11.434Z,-0.44
2019-02-27T01:28:45.590Z,-0.50
2019-02-27T01:31:21.977Z,-0.42
2019-02-27T01:33:55.176Z,-0.38
2019-02-27T01:36:29.231Z,-0.43
2019-02-27T01:39:03.371Z,-0.31
2019-02-27T01:41:37.276Z,-0.38
2019-02-27T01:44:14.235Z,-0.17
2019-02-27T01:46:48.023Z,-0.21
2019-02-27T01:49:22.010Z,-0.56
2019-02-27T01:51:56.128Z,-0.46
2019-02-27T01:54:30.271Z,-0.22
2019-02-27T01:57:04.869Z,-0.01
2019-02-27T01:59:39.421Z,-0.08
2019-02-27T02:02:14.446Z,-0.15
2019-02-27T02:04:48.274Z,-0.03
2019-02-27T02:07:26.450Z,-0.15
2019-02-27T02:09:59.436Z,0.05
2019-02-27T02:12:34.276Z,0.10
2019-02-27T02:15:16.986Z,0.10
2019-02-27T02:18:28.992Z,0.05
2019-02-27T02:21:23.687Z,0.05
2019-02-27T02:24:28.232Z,0.03
2019-02-27T02:27:12.388Z,0.07
2019-02-27T02:30:10.825Z,0.17
2019-02-27T02:33:15.381Z,0.12
2019-02-27T02:36:09.652Z,0.28
2019-02-27T02:39:17.892Z,0.43
2019-02-27T02:41:53.018Z,0.39
2019-02-27T02:44:35.728Z,0.40
2019-02-27T02:47:31.681Z,0.52
2019-02-27T02:50:22.215Z,0.62
2019-02-27T02:53:24.827Z,0.65
2019-02-27T02:56:17.406Z,0.73
2019-02-27T02:59:12.783Z,0.66
2019-02-27T03:01:54.796Z,0.40
2019-02-27T03:05:03.166Z,0.71
2019-02-27T03:07:45.633Z,0.70
2019-02-27T03:10:29.917Z,0.70
2019-02-27T03:13:07.294Z,0.65
2019-02-27T03:15:46.623Z,0.71
2019-02-27T03:18:34.729Z,0.84
2019-02-27T03:21:36.398Z,0.68
2019-02-27T03:24:29.423Z,0.74
2019-02-27T03:27:14.401Z,0.86
2019-02-27T03:30:06.153Z,1.03
2019-02-27T03:33:23.488Z,1.03
2019-02-27T03:35:59.901Z,1.07
2019-02-27T03:38:47.582Z,1.06
2019-02-27T03:41:35.500Z,1.12
2019-02-27T03:47:58.478Z,1.17
2019-02-27T03:52:09.846Z,1.18
2019-02-27T03:53:55.642Z,1.14
2019-02-27T03:56:54.282Z,1.11
2019-02-27T03:59:51.771Z,1.21
2019-02-27T04:02:33.514Z,1.21
2019-02-27T04:05:33.608Z,1.26
2019-02-27T04:08:15.824Z,1.29
2019-02-27T04:10:49.465Z,1.30
2019-02-27T04:13:27.767Z,1.37
2019-02-27T04:15:59.247Z,1.48
2019-02-27T04:18:29.611Z,1.57
2019-02-27T04:21:03.077Z,1.68
2019-02-27T04:23:40.092Z,1.82
2019-02-27T04:26:15.464Z,1.87
2019-02-27T04:28:47.925Z,1.87
2019-02-27T04:31:21.825Z,1.96
2019-02-27T04:33:59.527Z,2.09
2019-02-27T04:36:30.850Z,1.89
2019-02-27T04:39:04.604Z,2.09
2019-02-27T04:41:38.244Z,2.12
2019-02-27T04:44:11.968Z,2.21
2019-02-27T04:46:46.995Z,2.16
2019-02-27T04:49:20.375Z,2.15
2019-02-27T04:51:53.823Z,2.18
2019-02-27T04:54:27.453Z,2.21
2019-02-27T04:57:01.075Z,2.29
2019-02-27T04:59:34.885Z,2.33
2019-02-27T05:02:08.593Z,2.41
2019-02-27T05:04:43.474Z,2.29
2019-02-27T05:07:20.117Z,2.21
2019-02-27T05:09:52.866Z,2.17
2019-02-27T05:12:27.855Z,2.16
2019-02-27T05:15:04.075Z,1.99
2019-02-27T05:17:37.502Z,1.82
2019-02-27T05:20:12.624Z,1.80
2019-02-27T05:22:46.498Z,1.77
2019-02-27T05:28:15.545Z,1.65
2019-02-27T05:30:49.260Z,1.50
2019-02-27T05:33:23.617Z,1.16
2019-02-27T05:35:57.779Z,0.94
2019-02-27T05:38:32.072Z,0.82
2019-02-27T05:41:05.839Z,0.61
2019-02-27T05:43:41.343Z,0.43
2019-02-27T05:46:15.187Z,0.36
2019-02-27T05:48:50.918Z,0.34
2019-02-27T05:51:24.911Z,0.34
2019-02-27T05:53:59.592Z,0.26
2019-02-27T05:56:33.821Z,0.27
2019-02-27T05:59:08.113Z,0.27
2019-02-27T06:01:42.558Z,0.13
2019-02-27T06:04:35.963Z,0.04
2019-02-27T06:07:10.028Z,0.21
2019-02-27T06:09:44.953Z,0.20
2019-02-27T06:12:18.647Z,0.22
2019-02-27T06:14:54.781Z,0.27
2019-02-27T06:17:27.570Z,0.30
2019-02-27T06:20:02.606Z,0.39
2019-02-27T06:22:36.295Z,0.32
2019-02-27T06:25:24.565Z,0.29
2019-02-27T06:27:58.384Z,0.38
2019-02-27T06:30:32.113Z,0.50
2019-02-27T06:33:05.905Z,0.43
2019-02-27T06:35:39.749Z,0.19
2019-02-27T06:38:13.755Z,0.17
2019-02-27T06:40:47.467Z,0.24
2019-02-27T06:43:21.129Z,0.20
2019-02-27T06:45:55.005Z,0.19
2019-02-27T06:48:28.675Z,0.30
2019-02-27T06:51:02.244Z,0.16
2019-02-27T06:53:36.019Z,0.24
2019-02-27T06:56:10.049Z,0.26
2019-02-27T06:58:44.696Z,-0.10
2019-02-27T07:01:20.010Z,0.13
2019-02-27T07:04:13.355Z,0.05
2019-02-27T07:06:47.380Z,0.21
2019-02-27T07:09:22.726Z,0.14
2019-02-27T07:11:57.071Z,0.22
2019-02-27T07:14:31.045Z,0.26
2019-02-27T07:17:06.810Z,0.44
2019-02-27T07:19:42.813Z,0.41
2019-02-27T07:22:17.643Z,0.40
2019-02-27T07:24:53.497Z,0.25
2019-02-27T07:27:31.951Z,0.46
2019-02-27T07:30:09.839Z,0.33
2019-02-27T07:32:46.407Z,0.38
2019-02-27T07:35:25.600Z,0.48
2019-02-27T07:37:56.751Z,0.50
2019-02-27T07:40:31.838Z,0.50
2019-02-27T07:43:06.630Z,0.60
2019-02-27T07:45:45.427Z,0.56
2019-02-27T07:48:19.922Z,0.50
2019-02-27T07:50:57.546Z,0.52
2019-02-27T07:53:32.540Z,0.53
2019-02-27T07:56:25.957Z,0.53
2019-02-27T07:59:02.793Z,0.52
2019-02-27T08:01:43.464Z,0.39
2019-02-27T08:04:13.289Z,0.37
2019-02-27T08:06:50.222Z,0.42
2019-02-27T08:09:29.927Z,0.53
2019-02-27T08:12:06.285Z,0.52
2019-02-27T08:15:01.670Z,0.49
2019-02-27T08:17:38.708Z,0.38
2019-02-27T08:20:20.104Z,0.36
2019-02-27T08:22:55.208Z,0.35
2019-02-27T08:25:31.867Z,0.27
2019-02-27T08:28:09.936Z,0.27
2019-02-27T08:30:45.618Z,0.37
2019-02-27T08:33:26.266Z,0.32
2019-02-27T08:36:03.284Z,0.31
2019-02-27T08:38:44.030Z,0.30
2019-02-27T08:41:20.637Z,0.30
2019-02-27T08:43:55.086Z,0.38
2019-02-27T08:46:30.635Z,0.36
2019-02-27T08:49:04.824Z,0.39
2019-02-27T08:51:39.807Z,0.41
2019-02-27T08:54:16.085Z,0.42
2019-02-27T08:56:50.254Z,0.40
2019-02-27T08:59:25.867Z,0.45
2019-02-27T09:02:01.143Z,0.35
2019-02-27T09:04:35.368Z,0.45
2019-02-27T09:07:11.040Z,0.46
2019-02-27T09:09:45.319Z,0.40
2019-02-27T09:12:19.620Z,0.46
2019-02-27T09:14:55.908Z,0.46
2019-02-27T09:17:29.943Z,0.38
2019-02-27T09:20:04.131Z,0.45
2019-02-27T09:22:38.919Z,0.39
2019-02-27T09:25:15.090Z,0.35
2019-02-27T09:27:51.386Z,0.20
2019-02-27T09:30:30.027Z,0.20
2019-02-27T09:33:04.611Z,0.24
2019-02-27T09:35:38.973Z,0.20
2019-02-27T09:38:13.940Z,0.17
2019-02-27T09:40:50.149Z,0.17
2019-02-27T09:43:27.364Z,0.16
2019-02-27T09:46:03.259Z,0.16
2019-02-27T09:48:39.087Z,0.10
2019-02-27T09:51:16.035Z,0.15
2019-02-27T09:53:51.235Z,0.09
2019-02-27T09:56:29.083Z,0.06
2019-02-27T09:59:05.377Z,0.09
2019-02-27T10:01:40.553Z,0.10
2019-02-27T10:04:17.965Z,0.04
2019-02-27T10:06:54.694Z,0.07
2019-02-27T10:09:29.918Z,0.06
2019-02-27T10:12:10.877Z,0.00
2019-02-27T10:14:47.942Z,0.00
2019-02-27T10:17:43.595Z,0.00
2019-02-27T10:20:23.641Z,-0.07
2019-02-27T10:23:01.946Z,-0.08
2019-02-27T10:25:36.887Z,0.00
2019-02-27T10:28:13.173Z,-0.06
2019-02-27T10:30:49.962Z,0.00
2019-02-27T10:33:28.771Z,0.03
2019-02-27T10:36:10.753Z,-0.07
2019-02-27T10:38:49.331Z,-0.04
2019-02-27T10:41:30.207Z,-0.11
2019-02-27T10:44:18.497Z,-0.09
2019-02-27T10:47:05.694Z,-0.07
2019-02-27T10:49:41.739Z,-0.16
2019-02-27T10:52:30.340Z,-0.09
2019-02-27T10:55:06.358Z,-0.15
2019-02-27T10:57:44.165Z,-0.20
2019-02-27T11:00:32.021Z,-0.31
2019-02-27T11:03:13.607Z,-0.29
2019-02-27T11:05:52.402Z,-0.36
2019-02-27T11:08:28.889Z,-0.21
2019-02-27T11:11:02.155Z,-0.29
2019-02-27T11:13:37.031Z,-0.27
2019-02-27T11:16:15.401Z,-0.25
2019-02-27T11:18:51.128Z,-0.12
2019-02-27T11:21:26.193Z,-0.21
2019-02-27T11:24:02.154Z,-0.20
2019-02-27T11:26:38.619Z,-0.14
2019-02-27T11:29:23.527Z,-0.21
2019-02-27T11:31:57.481Z,-0.18
2019-02-27T11:34:33.589Z,-0.07
2019-02-27T11:37:13.162Z,-0.09
2019-02-27T11:39:53.222Z,-0.22
2019-02-27T11:42:32.081Z,-0.19
2019-02-27T11:45:10.591Z,-0.20
2019-02-27T11:47:48.174Z,-0.36
2019-02-27T11:50:48.540Z,-0.29
2019-02-27T11:53:24.966Z,-0.31
2019-02-27T11:56:02.999Z,-0.17
2019-02-27T11:58:45.194Z,-0.30
2019-02-27T12:01:22.747Z,-0.37
2019-02-27T12:04:03.591Z,-0.43
2019-02-27T12:06:43.910Z,-0.33
2019-02-27T12:09:27.843Z,-0.29
2019-02-27T12:12:10.456Z,-0.45
2019-02-27T12:14:51.151Z,-0.41
2019-02-27T12:17:30.887Z,-0.44
2019-02-27T12:20:34.574Z,-0.32
2019-02-27T12:23:13.663Z,-0.44
2019-02-27T12:26:02.442Z,-0.52
2019-02-27T12:28:44.430Z,-0.55
2019-02-27T12:31:22.817Z,-0.62
2019-02-27T12:34:03.285Z,-0.65
2019-02-27T12:36:44.235Z,-0.61
2019-02-27T12:39:21.797Z,-0.67
2019-02-27T12:42:00.114Z,-0.74
2019-02-27T12:44:44.719Z,-0.70
2019-02-27T12:47:22.508Z,-0.87
2019-02-27T12:53:20.733Z,-0.84
2019-02-27T13:02:44.282Z,-0.88
2019-02-27T13:08:32.997Z,-0.89
2019-02-27T13:11:14.900Z,-0.87
2019-02-27T13:13:50.089Z,-0.93
2019-02-27T13:16:26.810Z,-1.04
2019-02-27T13:19:06.417Z,-1.08
2019-02-27T13:21:42.897Z,-1.00
2019-02-27T13:24:23.365Z,-1.05
2019-02-27T13:26:59.108Z,-1.12
2019-02-27T13:29:34.852Z,-1.27
2019-02-27T13:32:11.037Z,-1.24
2019-02-27T13:34:48.247Z,-1.31
2019-02-27T13:37:24.332Z,-1.29
2019-02-27T13:40:01.627Z,-1.62
2019-02-27T13:42:38.093Z,-1.58
2019-02-27T13:45:32.006Z,-1.43
2019-02-27T13:48:08.716Z,-1.53
2019-02-27T13:50:44.897Z,-1.48
2019-02-27T13:53:25.815Z,-1.67
2019-02-27T13:55:58.508Z,-1.66
2019-02-27T13:58:38.392Z,-1.53
2019-02-27T14:01:14.198Z,-1.60
2019-02-27T14:03:50.385Z,-1.70
2019-02-27T14:06:30.787Z,-1.73
2019-02-27T14:09:07.015Z,-1.75
2019-02-27T14:11:43.477Z,-1.74
2019-02-27T14:14:20.128Z,-1.73
2019-02-27T14:17:00.025Z,-1.86
2019-02-27T14:19:36.995Z,-1.73
2019-02-27T14:22:13.664Z,-1.85
2019-02-27T14:24:54.783Z,-1.98
2019-02-27T14:27:28.234Z,-1.88
2019-02-27T14:30:03.760Z,-1.92
2019-02-27T14:32:41.045Z,-1.98
2019-02-27T14:35:17.680Z,-2.07
2019-02-27T14:37:52.593Z,-1.95
2019-02-27T14:40:28.099Z,-2.07
2019-02-27T14:43:02.677Z,-2.06
2019-02-27T14:45:40.606Z,-2.12
2019-02-27T14:48:15.023Z,-2.05
2019-02-27T14:50:52.130Z,-2.07
2019-02-27T14:53:26.507Z,-2.17
2019-02-27T14:56:01.116Z,-2.17
2019-02-27T14:58:36.954Z,-2.20
2019-02-27T15:01:14.444Z,-2.03
2019-02-27T15:03:49.526Z,-2.18
2019-02-27T15:06:26.022Z,-2.25
2019-02-27T15:09:03.641Z,-2.23
2019-02-27T15:11:37.339Z,-1.91
2019-02-27T15:14:11.979Z,-2.24
2019-02-27T15:16:49.042Z,-2.05
2019-02-27T15:19:21.352Z,-2.09
2019-02-27T15:22:00.757Z,-2.28
2019-02-27T15:24:34.954Z,-2.25
2019-02-27T15:27:09.868Z,-2.31
2019-02-27T15:29:44.649Z,-2.25
2019-02-27T15:32:20.633Z,-2.20
2019-02-27T15:34:54.990Z,-2.28
2019-02-27T15:37:29.201Z,-2.28
2019-02-27T15:40:05.183Z,-2.44
2019-02-27T15:42:42.685Z,-2.37
2019-02-27T15:45:22.123Z,-2.32
2019-02-27T15:48:15.677Z,-2.34
2019-02-27T15:50:51.009Z,-2.37
2019-02-27T15:53:25.379Z,-2.53
2019-02-27T15:55:59.928Z,-2.54
2019-02-27T15:58:36.048Z,-2.51
2019-02-27T16:01:11.644Z,-2.52
2019-02-27T16:03:47.450Z,-2.49
2019-02-27T16:06:21.969Z,-2.52
2019-02-27T16:08:58.382Z,-2.52
2019-02-27T16:11:32.585Z,-2.70
2019-02-27T16:14:10.237Z,-2.63
2019-02-27T16:16:43.775Z,-2.76
2019-02-27T16:19:18.054Z,-2.62
2019-02-27T16:21:56.984Z,-2.73
2019-02-27T16:24:28.945Z,-2.66
2019-02-27T16:27:03.259Z,-2.67
2019-02-27T16:29:38.838Z,-2.75
2019-02-27T16:32:14.661Z,-2.80
2019-02-27T16:34:50.786Z,-2.66
2019-02-27T16:37:25.026Z,-2.75
2019-02-27T16:40:00.734Z,-2.82
2019-02-27T16:42:36.394Z,-2.73
2019-02-27T16:45:15.115Z,-2.87
2019-02-27T16:47:49.874Z,-2.84
2019-02-27T16:50:30.728Z,-2.85
2019-02-27T16:53:04.926Z,-2.81
2019-02-27T16:55:58.398Z,-2.80
2019-02-27T16:58:33.835Z,-2.77
2019-02-27T17:01:11.336Z,-2.75
2019-02-27T17:03:52.534Z,-2.51
2019-02-27T17:06:22.980Z,-2.67
2019-02-27T17:08:58.609Z,-2.64
2019-02-27T17:11:33.196Z,-2.59
2019-02-27T17:14:07.531Z,-2.45
2019-02-27T17:16:44.850Z,-2.39
2019-02-27T17:19:19.867Z,-2.21
2019-02-27T17:21:58.851Z,-2.00
2019-02-27T17:24:33.669Z,-1.92
2019-02-27T17:27:12.587Z,-1.88
2019-02-27T17:29:43.219Z,-1.88
2019-02-27T17:32:17.465Z,-1.88
2019-02-27T17:34:51.694Z,-1.85
2019-02-27T17:37:25.948Z,-1.88
2019-02-27T17:40:02.353Z,-1.82
2019-02-27T17:42:35.295Z,-1.87
2019-02-27T17:45:13.078Z,-1.84
2019-02-27T17:47:47.555Z,-1.88
2019-02-27T17:50:21.818Z,-1.81
2019-02-27T17:52:56.267Z,-1.73
2019-02-27T17:55:30.401Z,-1.62
2019-02-27T17:58:09.271Z,-1.62
2019-02-27T18:00:43.708Z,-1.58
2019-02-27T18:03:19.217Z,-1.54
2019-02-27T18:05:53.401Z,-1.61
2019-02-27T18:08:27.711Z,-1.69
2019-02-27T18:11:03.401Z,-1.66
2019-02-27T18:13:37.579Z,-1.67
2019-02-27T18:16:11.751Z,-1.55
2019-02-27T18:18:45.828Z,-1.57
2019-02-27T18:21:19.928Z,-1.48
2019-02-27T18:23:55.371Z,-1.53
2019-02-27T18:26:30.489Z,-1.40
2019-02-27T18:29:07.687Z,-1.56
2019-02-27T18:31:42.806Z,-1.52
2019-02-27T18:34:16.967Z,-1.50
2019-02-27T18:36:51.970Z,-1.34
2019-02-27T18:39:27.851Z,-1.45
2019-02-27T18:42:02.255Z,-1.45
2019-02-27T18:44:40.650Z,-1.46
2019-02-27T18:47:15.792Z,-1.37
2019-02-27T18:49:52.336Z,-1.49
2019-02-27T18:52:25.244Z,-1.36
2019-02-27T18:54:59.355Z,-1.45
2019-02-27T18:57:34.934Z,-1.45
2019-02-27T19:00:11.173Z,-1.54
2019-02-27T19:02:45.515Z,-1.44
2019-02-27T19:05:19.738Z,-1.46
2019-02-27T19:07:54.834Z,-1.48
2019-02-27T19:10:28.953Z,-1.46
2019-02-27T19:13:03.071Z,-1.53
2019-02-27T19:15:37.353Z,-1.70
2019-02-27T19:18:11.492Z,-1.64
2019-02-27T19:20:50.340Z,-1.54
2019-02-27T19:23:25.675Z,-1.65
2019-02-27T19:25:59.377Z,-1.69
2019-02-27T19:28:33.531Z,-1.68
2019-02-27T19:31:07.931Z,-1.87
2019-02-27T19:33:42.205Z,-1.69
2019-02-27T19:36:19.122Z,-1.76
2019-02-27T19:38:53.893Z,-1.86
2019-02-27T19:41:28.141Z,-1.85
2019-02-27T19:44:02.288Z,-1.61
2019-02-27T19:46:38.431Z,-1.59
2019-02-27T19:49:12.666Z,-1.70
2019-02-27T19:51:46.911Z,-1.61
2019-02-27T19:54:22.562Z,-1.46
2019-02-27T19:56:56.753Z,-1.54
2019-02-27T19:59:31.039Z,-1.49
2019-02-27T20:02:06.596Z,-1.58
2019-02-27T20:04:43.664Z,-1.59
2019-02-27T20:07:16.277Z,-1.58
2019-02-27T20:09:51.367Z,-1.56
2019-02-27T20:12:25.520Z,-1.57
2019-02-27T20:15:00.233Z,-1.56
2019-02-27T20:17:36.019Z,-1.63
2019-02-27T20:20:16.936Z,-1.62
2019-02-27T20:22:54.393Z,-1.51
2019-02-27T20:25:32.909Z,-1.50
2019-02-27T20:28:07.276Z,-1.53
2019-02-27T20:30:41.702Z,-1.56
2019-02-27T20:33:16.243Z,-1.57
2019-02-27T20:35:52.268Z,-1.55
2019-02-27T20:38:27.069Z,-1.42
2019-02-27T20:41:05.782Z,-1.56
2019-02-27T20:43:38.027Z,-1.62
2019-02-27T20:46:14.738Z,-1.58
2019-02-27T20:48:47.484Z,-1.62
2019-02-27T20:51:21.417Z,-1.68
2019-02-27T20:53:57.380Z,-1.63
2019-02-27T20:56:36.005Z,-1.57
2019-02-27T20:59:08.368Z,-1.58
2019-02-27T21:04:25.459Z,-1.67
2019-02-27T21:06:59.549Z,-1.65
2019-02-27T21:09:34.938Z,-1.68
2019-02-27T21:12:09.109Z,-1.70
2019-02-27T21:14:43.262Z,-1.65
2019-02-27T21:17:20.873Z,-1.46
2019-02-27T21:19:54.051Z,-1.40
2019-02-27T21:22:29.594Z,-1.51
2019-02-27T21:25:03.677Z,-1.62
2019-02-27T21:27:37.844Z,-1.55
2019-02-27T21:30:22.425Z,-1.70
2019-02-27T21:32:57.866Z,-1.57
2019-02-27T21:35:46.596Z,-1.58
2019-02-27T21:38:20.639Z,-1.64
2019-02-27T21:40:54.764Z,-1.58
2019-02-27T21:43:28.847Z,-1.61
2019-02-27T21:46:03.047Z,-1.73
2019-02-27T21:48:58.635Z,-1.56
2019-02-27T21:51:33.231Z,-1.70
2019-02-27T21:54:08.971Z,-1.80
2019-02-27T21:56:43.303Z,-1.76
2019-02-27T21:59:17.364Z,-1.83
2019-02-27T22:01:53.332Z,-1.78
2019-02-27T22:04:29.075Z,-1.85
2019-02-27T22:07:04.526Z,-1.85
2019-02-27T22:09:40.328Z,-1.86
2019-02-27T22:12:14.425Z,-1.87
2019-02-27T22:14:49.222Z,-1.90
2019-02-27T22:17:23.472Z,-1.81
2019-02-27T22:19:59.155Z,-1.77
2019-02-27T22:22:41.357Z,-1.69
2019-02-27T22:25:16.620Z,-1.73
2019-02-27T22:27:50.905Z,-1.68
2019-02-27T22:30:25.402Z,-1.71
2019-02-27T22:33:01.589Z,-1.67
2019-02-27T22:35:37.849Z,-1.62
2019-02-27T22:38:11.196Z,-1.46
2019-02-27T22:40:45.351Z,-1.57
2019-02-27T22:43:21.987Z,-1.58
2019-02-27T22:45:56.438Z,-1.49
2019-02-27T22:48:30.534Z,-1.48
2019-02-27T22:51:05.657Z,-1.35
2019-02-27T22:53:39.727Z,-1.31
2019-02-27T22:56:16.841Z,-1.40
2019-02-27T22:58:52.254Z,-1.25
2019-02-27T23:01:28.144Z,-1.30
2019-02-27T23:04:02.633Z,-1.26
2019-02-27T23:06:37.236Z,-1.20
2019-02-27T23:09:14.081Z,-1.10
2019-02-27T23:11:48.382Z,-1.19
2019-02-27T23:14:22.716Z,-1.26
2019-02-27T23:17:00.596Z,-1.16
2019-02-27T23:19:33.459Z,-1.08
2019-02-27T23:22:07.730Z,-0.94
2019-02-27T23:24:43.935Z,-0.68
2019-02-27T23:27:18.879Z,-0.45
2019-02-27T23:29:53.302Z,-0.39
2019-02-27T23:32:28.655Z,0.04
2019-02-27T23:35:02.686Z,0.18
2019-02-27T23:37:36.887Z,0.72
2019-02-27T23:40:16.886Z,0.71
2019-02-27T23:42:46.622Z,0.51
2019-02-27T23:45:24.034Z,0.43
2019-02-27T23:47:59.218Z,0.53
2019-02-27T23:50:44.660Z,0.97
2019-02-27T23:53:19.197Z,0.83
2019-02-27T23:55:55.556Z,1.23
2019-02-27T23:58:37.097Z,1.97
